createdAt,value
2017-11-24T00:00:31.863Z,61.90
2017-11-24T00:02:59.458Z,62.00
2017-11-24T00:05:27.070Z,61.50
2017-11-24T00:07:54.687Z,61.80
2017-11-24T00:10:22.254Z,62.10
2017-11-24T00:12:49.844Z,61.40
2017-11-24T00:15:17.434Z,61.60
2017-11-24T00:17:45.036Z,61.20
2017-11-24T00:20:12.658Z,61.40
2017-11-24T00:22:40.229Z,61.40
2017-11-24T00:25:08.623Z,61.20
2017-11-24T00:27:36.983Z,61.20
2017-11-24T00:30:05.341Z,61.30
2017-11-24T00:32:32.951Z,61.30
2017-11-24T00:35:00.519Z,61.20
2017-11-24T00:37:28.105Z,61.60
2017-11-24T00:39:55.715Z,61.90
2017-11-24T00:42:23.477Z,61.60
2017-11-24T00:44:51.821Z,62.10
2017-11-24T00:47:19.380Z,62.00
2017-11-24T00:49:47.001Z,62.00
2017-11-24T00:52:14.626Z,62.20
2017-11-24T00:54:43.033Z,62.40
2017-11-24T00:57:11.395Z,62.80
2017-11-24T00:59:39.737Z,62.20
2017-11-24T01:02:07.344Z,62.20
2017-11-24T01:04:35.679Z,62.70
2017-11-24T01:07:03.281Z,62.60
2017-11-24T01:09:31.621Z,62.90
2017-11-24T01:11:59.228Z,62.90
2017-11-24T01:14:27.558Z,63.10
2017-11-24T01:16:55.153Z,63.00
2017-11-24T01:19:22.779Z,63.20
2017-11-24T01:21:50.338Z,63.40
2017-11-24T01:24:17.917Z,63.50
2017-11-24T01:26:45.515Z,63.70
2017-11-24T01:29:13.848Z,64.00
2017-11-24T01:31:41.457Z,64.00
2017-11-24T01:34:09.842Z,64.00
2017-11-24T01:36:38.178Z,63.80
2017-11-24T01:39:05.750Z,63.80
2017-11-24T01:41:33.370Z,64.10
2017-11-24T01:44:00.944Z,64.40
2017-11-24T01:46:28.505Z,64.80
2017-11-24T01:48:56.111Z,64.70
2017-11-24T01:51:24.440Z,65.10
2017-11-24T01:53:52.063Z,65.10
2017-11-24T01:56:20.405Z,65.40
2017-11-24T01:58:47.972Z,65.30
2017-11-24T02:01:15.584Z,65.00
2017-11-24T02:03:43.151Z,65.40
2017-11-24T02:06:10.792Z,65.30
2017-11-24T02:08:39.167Z,65.40
2017-11-24T02:11:07.509Z,65.60
2017-11-24T02:13:35.123Z,65.50
2017-11-24T02:16:02.702Z,65.50
2017-11-24T02:18:30.300Z,66.20
2017-11-24T02:20:57.904Z,65.10
2017-11-24T02:23:25.501Z,65.40
2017-11-24T02:25:53.121Z,65.30
2017-11-24T02:28:20.746Z,65.50
2017-11-24T02:30:48.335Z,65.50
2017-11-24T02:33:16.709Z,66.10
2017-11-24T02:35:45.094Z,65.70
2017-11-24T02:38:13.438Z,66.30
2017-11-24T02:40:41.026Z,66.30
2017-11-24T02:43:09.375Z,66.40
2017-11-24T02:45:36.988Z,66.40
2017-11-24T02:48:04.550Z,66.60
2017-11-24T02:50:32.149Z,66.80
2017-11-24T02:52:59.789Z,66.80
2017-11-24T02:55:27.352Z,67.00
2017-11-24T02:57:54.943Z,67.10
2017-11-24T03:00:22.504Z,67.10
2017-11-24T03:02:50.111Z,67.20
2017-11-24T03:05:17.717Z,67.40
2017-11-24T03:07:45.285Z,67.50
2017-11-24T03:10:12.856Z,68.00
2017-11-24T03:12:40.464Z,67.90
2017-11-24T03:15:08.024Z,68.00
2017-11-24T03:17:35.632Z,67.80
2017-11-24T03:20:03.203Z,68.00
2017-11-24T03:22:30.775Z,67.90
2017-11-24T03:24:58.372Z,67.90
2017-11-24T03:27:25.991Z,67.40
2017-11-24T03:29:53.567Z,67.10
2017-11-24T03:32:21.201Z,66.40
2017-11-24T03:34:48.765Z,66.40
2017-11-24T03:37:16.360Z,66.20
2017-11-24T03:39:44.785Z,66.20
2017-11-24T03:42:12.359Z,66.20
2017-11-24T03:44:39.926Z,66.40
2017-11-24T03:47:07.542Z,67.00
2017-11-24T03:49:35.158Z,66.20
2017-11-24T03:52:02.736Z,66.00
2017-11-24T03:54:31.119Z,66.30
2017-11-24T03:56:59.497Z,65.70
2017-11-24T03:59:27.896Z,66.20
2017-11-24T04:01:57.006Z,66.20
2017-11-24T04:04:24.573Z,66.10
2017-11-24T04:06:52.200Z,66.20
2017-11-24T04:09:20.541Z,66.30
2017-11-24T04:11:48.152Z,66.30
2017-11-24T04:14:16.487Z,66.00
2017-11-24T04:16:44.060Z,66.00
2017-11-24T04:19:11.669Z,66.00
2017-11-24T04:21:39.284Z,66.30
2017-11-24T04:24:06.844Z,66.30
2017-11-24T04:26:34.442Z,66.30
2017-11-24T04:29:02.808Z,66.30
2017-11-24T04:31:31.135Z,66.40
2017-11-24T04:33:58.760Z,66.30
2017-11-24T04:36:26.400Z,66.70
2017-11-24T04:38:53.968Z,66.60
2017-11-24T04:41:22.345Z,66.70
2017-11-24T04:43:50.746Z,67.30
2017-11-24T04:46:19.124Z,66.70
2017-11-24T04:48:46.704Z,66.60
2017-11-24T04:51:14.347Z,66.30
2017-11-24T04:53:42.680Z,66.30
2017-11-24T04:56:10.241Z,66.20
2017-11-24T04:58:37.855Z,65.80
2017-11-24T05:01:05.496Z,66.00
2017-11-24T05:03:33.840Z,65.50
2017-11-24T05:06:01.450Z,65.50
2017-11-24T05:08:29.833Z,65.90
2017-11-24T05:10:58.160Z,65.70
2017-11-24T05:13:25.806Z,65.60
2017-11-24T05:15:53.447Z,65.40
2017-11-24T05:18:21.076Z,65.30
2017-11-24T05:20:48.688Z,65.00
2017-11-24T05:23:16.299Z,64.90
2017-11-24T05:25:44.635Z,65.50
2017-11-24T05:28:12.251Z,64.70
2017-11-24T05:30:40.574Z,65.10
2017-11-24T05:33:08.184Z,65.10
2017-11-24T05:35:36.531Z,65.30
2017-11-24T05:38:04.144Z,65.20
2017-11-24T05:40:31.734Z,65.30
2017-11-24T05:42:59.384Z,65.60
2017-11-24T05:45:26.989Z,65.10
2017-11-24T05:47:54.567Z,65.10
2017-11-24T05:50:22.968Z,65.40
2017-11-24T05:52:51.327Z,65.20
2017-11-24T05:55:19.660Z,64.90
2017-11-24T05:57:47.268Z,64.70
2017-11-24T06:00:15.625Z,65.10
2017-11-24T06:02:43.291Z,65.10
2017-11-24T06:05:10.854Z,65.20
2017-11-24T06:07:38.442Z,65.20
2017-11-24T06:10:06.837Z,65.20
2017-11-24T06:12:34.454Z,65.20
2017-11-24T06:15:02.866Z,65.70
2017-11-24T06:17:30.442Z,65.60
2017-11-24T06:19:58.101Z,66.10
2017-11-24T06:22:25.658Z,66.30
2017-11-24T06:24:54.052Z,65.80
2017-11-24T06:27:21.697Z,65.80
2017-11-24T06:29:49.449Z,65.80
2017-11-24T06:32:17.803Z,65.60
2017-11-24T06:34:45.411Z,65.60
2017-11-24T06:37:12.967Z,65.10
2017-11-24T06:39:41.339Z,64.90
2017-11-24T06:42:09.698Z,65.10
2017-11-24T06:44:38.057Z,65.10
2017-11-24T06:47:05.776Z,65.10
2017-11-24T06:49:33.364Z,65.00
2017-11-24T06:52:00.970Z,65.10
2017-11-24T06:54:29.364Z,65.10
2017-11-24T06:56:57.836Z,65.20
2017-11-24T06:59:26.211Z,65.20
2017-11-24T07:01:53.811Z,65.00
2017-11-24T07:04:21.471Z,65.20
2017-11-24T07:06:49.078Z,64.90
2017-11-24T07:09:16.713Z,65.10
2017-11-24T07:11:44.293Z,64.90
2017-11-24T07:14:11.898Z,65.00
2017-11-24T07:16:40.231Z,64.60
2017-11-24T07:19:07.839Z,64.60
2017-11-24T07:21:36.234Z,65.20
2017-11-24T07:24:03.842Z,65.20
2017-11-24T07:26:31.407Z,64.10
2017-11-24T07:28:59.017Z,64.20
2017-11-24T07:31:26.739Z,64.20
2017-11-24T07:33:56.758Z,64.20
2017-11-24T07:36:24.344Z,63.60
2017-11-24T07:38:52.710Z,63.50
2017-11-24T07:41:21.110Z,63.60
2017-11-24T07:43:48.881Z,63.60
2017-11-24T07:46:16.485Z,63.30
2017-11-24T07:48:44.873Z,63.30
2017-11-24T07:51:12.474Z,63.30
2017-11-24T07:53:42.276Z,62.90
2017-11-24T07:56:10.727Z,63.20
2017-11-24T07:58:38.332Z,63.20
2017-11-24T08:01:06.656Z,63.00
2017-11-24T08:03:34.281Z,62.90
2017-11-24T08:06:01.880Z,63.50
2017-11-24T08:08:29.522Z,63.50
2017-11-24T08:10:57.093Z,63.40
2017-11-24T08:13:24.673Z,62.80
2017-11-24T08:15:52.308Z,62.70
2017-11-24T08:18:19.963Z,62.80
2017-11-24T08:20:48.747Z,62.40
2017-11-24T08:23:16.357Z,62.60
2017-11-24T08:25:43.979Z,62.60
2017-11-24T08:28:11.667Z,62.50
2017-11-24T08:30:39.263Z,62.40
2017-11-24T08:33:07.644Z,62.00
2017-11-24T08:35:36.039Z,62.20
2017-11-24T08:38:03.607Z,62.20
2017-11-24T08:40:31.195Z,62.20
2017-11-24T08:42:58.819Z,62.00
2017-11-24T08:45:27.207Z,62.30
2017-11-24T08:48:00.414Z,62.20
2017-11-24T08:50:28.055Z,62.60
2017-11-24T08:52:55.635Z,62.50
2017-11-24T08:55:23.227Z,62.70
2017-11-24T08:57:50.847Z,62.30
2017-11-24T09:00:19.199Z,62.20
2017-11-24T09:02:46.833Z,62.10
2017-11-24T09:05:22.079Z,61.90
2017-11-24T09:07:49.871Z,62.00
2017-11-24T09:10:17.901Z,61.50
2017-11-24T09:12:45.769Z,61.40
2017-11-24T09:15:13.384Z,61.90
2017-11-24T09:17:41.774Z,61.50
2017-11-24T09:20:09.436Z,61.40
2017-11-24T09:22:37.015Z,61.90
2017-11-24T09:25:04.727Z,62.30
2017-11-24T09:27:33.128Z,61.90
2017-11-24T09:30:00.724Z,61.80
2017-11-24T09:32:28.452Z,61.60
2017-11-24T09:34:56.801Z,61.20
2017-11-24T09:37:24.444Z,61.20
2017-11-24T09:39:52.186Z,60.60
2017-11-24T09:42:19.811Z,60.70
2017-11-24T09:44:48.484Z,61.00
2017-11-24T09:47:16.121Z,61.00
2017-11-24T09:49:43.853Z,61.50
2017-11-24T09:52:11.486Z,60.30
2017-11-24T09:54:39.891Z,60.10
2017-11-24T09:57:08.259Z,59.50
2017-11-24T09:59:36.804Z,59.60
2017-11-24T10:02:04.498Z,59.50
2017-11-24T10:04:32.180Z,59.40
2017-11-24T10:07:00.556Z,59.50
2017-11-24T10:09:29.783Z,59.50
2017-11-24T10:11:59.124Z,59.00
2017-11-24T10:14:26.692Z,58.90
2017-11-24T10:16:54.322Z,59.30
2017-11-24T10:19:21.912Z,59.90
2017-11-24T10:21:55.093Z,59.10
2017-11-24T10:24:23.000Z,59.50
2017-11-24T10:26:51.100Z,59.60
2017-11-24T10:29:18.708Z,59.40
2017-11-24T10:31:46.520Z,59.70
2017-11-24T10:34:14.197Z,59.70
2017-11-24T10:36:41.819Z,59.70
2017-11-24T10:39:11.843Z,59.50
2017-11-24T10:41:39.496Z,59.40
2017-11-24T10:44:07.072Z,59.50
2017-11-24T10:46:34.707Z,60.40
2017-11-24T10:49:02.351Z,60.30
2017-11-24T10:51:29.991Z,59.50
2017-11-24T10:53:57.576Z,60.20
2017-11-24T10:56:25.150Z,60.30
2017-11-24T10:58:54.683Z,59.90
2017-11-24T11:01:23.053Z,59.50
2017-11-24T11:04:00.566Z,59.50
2017-11-24T11:06:29.292Z,59.30
2017-11-24T11:08:56.917Z,59.30
2017-11-24T11:11:24.509Z,59.00
2017-11-24T11:13:52.122Z,58.70
2017-11-24T11:16:20.581Z,59.50
2017-11-24T11:18:48.195Z,59.40
2017-11-24T11:21:15.834Z,59.70
2017-11-24T11:23:44.366Z,59.20
2017-11-24T11:26:12.015Z,59.10
2017-11-24T11:28:39.677Z,59.00
2017-11-24T11:31:07.296Z,58.60
2017-11-24T11:33:34.932Z,57.90
2017-11-24T11:36:02.607Z,57.70
2017-11-24T11:38:30.348Z,57.70
2017-11-24T11:40:58.044Z,57.60
2017-11-24T11:43:25.674Z,58.00
2017-11-24T11:45:53.252Z,58.20
2017-11-24T11:48:20.915Z,58.50
2017-11-24T11:50:48.519Z,58.70
2017-11-24T11:53:16.159Z,58.70
2017-11-24T11:55:44.022Z,58.80
2017-11-24T11:58:11.739Z,58.50
2017-11-24T12:00:39.377Z,58.90
2017-11-24T12:03:07.009Z,58.80
2017-11-24T12:05:35.495Z,60.70
2017-11-24T12:08:03.125Z,60.70
2017-11-24T12:10:30.755Z,62.00
2017-11-24T12:12:58.331Z,62.80
2017-11-24T12:15:26.088Z,64.30
2017-11-24T12:17:53.688Z,66.30
2017-11-24T12:20:21.303Z,68.60
2017-11-24T12:22:51.095Z,68.70
2017-11-24T12:25:19.572Z,70.40
2017-11-24T12:27:47.939Z,70.40
2017-11-24T12:30:15.603Z,71.00
2017-11-24T12:32:44.028Z,70.90
2017-11-24T12:35:11.634Z,71.50
2017-11-24T12:37:39.252Z,72.80
2017-11-24T12:40:07.728Z,72.90
2017-11-24T12:42:35.373Z,73.60
2017-11-24T12:45:03.761Z,75.30
2017-11-24T12:47:31.348Z,75.30
2017-11-24T12:49:58.972Z,76.50
2017-11-24T12:52:27.370Z,76.90
2017-11-24T12:54:54.988Z,76.90
2017-11-24T12:57:22.599Z,77.20
2017-11-24T12:59:50.222Z,77.60
2017-11-24T13:02:17.874Z,77.60
2017-11-24T13:04:45.507Z,78.10
2017-11-24T13:07:13.108Z,77.70
2017-11-24T13:09:40.724Z,78.20
2017-11-24T13:12:08.359Z,78.70
2017-11-24T13:14:36.019Z,79.40
2017-11-24T13:17:04.483Z,79.50
2017-11-24T13:19:32.887Z,80.10
2017-11-24T13:22:00.489Z,80.00
2017-11-24T13:24:28.214Z,80.00
2017-11-24T13:26:55.904Z,80.80
2017-11-24T13:29:23.721Z,80.70
2017-11-24T13:31:51.363Z,80.70
2017-11-24T13:34:19.143Z,80.50
2017-11-24T13:36:47.646Z,81.00
2017-11-24T13:39:16.119Z,80.90
2017-11-24T13:41:44.547Z,81.60
2017-11-24T13:44:12.260Z,81.70
2017-11-24T13:46:40.700Z,80.50
2017-11-24T13:49:08.477Z,80.50
2017-11-24T13:51:36.067Z,80.90
2017-11-24T13:54:04.431Z,81.10
2017-11-24T13:56:32.053Z,81.10
2017-11-24T13:58:59.681Z,81.00
2017-11-24T14:01:28.227Z,81.50
2017-11-24T14:03:55.855Z,81.50
2017-11-24T14:06:24.223Z,81.10
2017-11-24T14:08:51.834Z,81.10
2017-11-24T14:11:19.439Z,81.30
2017-11-24T14:13:47.813Z,80.90
2017-11-24T14:16:16.224Z,80.60
2017-11-24T14:18:44.687Z,80.60
2017-11-24T14:21:12.423Z,80.40
2017-11-24T14:23:40.849Z,81.10
2017-11-24T14:26:08.437Z,81.10
2017-11-24T14:28:36.603Z,81.30
2017-11-24T14:31:04.205Z,81.30
2017-11-24T14:33:32.624Z,81.40
2017-11-24T14:36:00.229Z,81.30
2017-11-24T14:38:27.851Z,81.00
2017-11-24T14:40:55.495Z,81.00
2017-11-24T14:43:23.108Z,81.00
2017-11-24T14:45:50.793Z,81.00
2017-11-24T14:48:28.323Z,81.20
2017-11-24T14:50:55.965Z,80.50
2017-11-24T14:53:23.602Z,81.00
2017-11-24T14:55:51.210Z,80.60
2017-11-24T14:58:18.778Z,80.60
2017-11-24T15:00:46.375Z,81.10
2017-11-24T15:03:13.989Z,81.20
2017-11-24T15:05:41.643Z,81.30
2017-11-24T15:08:09.234Z,81.10
2017-11-24T15:10:36.807Z,80.80
2017-11-24T15:13:04.427Z,80.00
2017-11-24T15:15:32.073Z,79.40
2017-11-24T15:18:00.475Z,79.60
2017-11-24T15:20:28.895Z,78.50
2017-11-24T15:22:56.519Z,78.50
2017-11-24T15:25:27.801Z,78.50
2017-11-24T15:27:55.451Z,77.60
2017-11-24T15:30:23.064Z,76.40
2017-11-24T15:32:51.494Z,76.50
2017-11-24T15:35:19.912Z,76.50
2017-11-24T15:37:47.483Z,76.40
2017-11-24T15:40:15.900Z,76.90
2017-11-24T15:42:43.519Z,76.90
2017-11-24T15:45:11.157Z,77.10
2017-11-24T15:47:38.742Z,77.50
2017-11-24T15:50:06.342Z,77.60
2017-11-24T15:52:33.984Z,77.80
2017-11-24T15:55:02.375Z,77.90
2017-11-24T15:57:29.956Z,77.90
2017-11-24T15:59:57.584Z,78.10
2017-11-24T16:02:25.948Z,78.30
2017-11-24T16:04:53.567Z,78.30
2017-11-24T16:07:21.325Z,78.30
2017-11-24T16:09:49.569Z,78.00
2017-11-24T16:12:17.429Z,77.70
2017-11-24T16:14:45.790Z,77.20
2017-11-24T16:17:13.401Z,77.10
2017-11-24T16:19:41.091Z,77.00
2017-11-24T16:22:08.695Z,76.50
2017-11-24T16:24:37.094Z,76.60
2017-11-24T16:27:04.667Z,76.50
2017-11-24T16:29:32.238Z,76.20
2017-11-24T16:32:00.866Z,76.40
2017-11-24T16:34:28.451Z,76.10
2017-11-24T16:36:56.858Z,76.70
2017-11-24T16:39:24.420Z,76.60
2017-11-24T16:41:52.038Z,76.20
2017-11-24T16:44:19.638Z,76.40
2017-11-24T16:46:47.308Z,76.20
2017-11-24T16:49:14.928Z,76.50
2017-11-24T16:51:42.541Z,76.80
2017-11-24T16:54:10.193Z,76.80
2017-11-24T16:56:37.763Z,77.10
2017-11-24T16:59:05.328Z,76.60
2017-11-24T17:01:32.970Z,77.00
2017-11-24T17:04:00.549Z,76.70
2017-11-24T17:06:28.169Z,76.50
2017-11-24T17:08:56.565Z,76.70
2017-11-24T17:11:27.563Z,76.50
2017-11-24T17:13:57.290Z,76.50
2017-11-24T17:16:27.542Z,76.60
2017-11-24T17:18:56.898Z,76.80
2017-11-24T17:21:25.493Z,76.80
2017-11-24T17:23:54.380Z,76.80
2017-11-24T17:26:24.179Z,76.70
2017-11-24T17:28:53.329Z,76.70
2017-11-24T17:31:23.523Z,76.90
2017-11-24T17:33:53.394Z,76.90
2017-11-24T17:36:25.169Z,77.50
2017-11-24T17:38:55.945Z,77.40
2017-11-24T17:41:27.506Z,77.10
2017-11-24T17:43:58.817Z,76.80
2017-11-24T17:46:28.579Z,76.70
2017-11-24T17:48:59.169Z,76.80
2017-11-24T17:51:29.055Z,76.60
2017-11-24T17:53:58.717Z,76.90
2017-11-24T17:56:30.382Z,77.20
2017-11-24T17:59:01.857Z,77.10
2017-11-24T18:01:31.750Z,77.10
2017-11-24T18:04:02.247Z,77.10
2017-11-24T18:06:33.588Z,77.10
2017-11-24T18:09:03.163Z,76.80
2017-11-24T18:11:31.902Z,77.00
2017-11-24T18:14:01.374Z,77.20
2017-11-24T18:16:32.075Z,77.20
2017-11-24T18:19:02.530Z,78.10
2017-11-24T18:21:33.302Z,78.10
2017-11-24T18:24:03.315Z,78.70
2017-11-24T18:26:33.367Z,78.50
2017-11-24T18:29:05.534Z,78.50
2017-11-24T18:31:36.232Z,78.60
2017-11-24T18:34:05.988Z,78.50
2017-11-24T18:36:36.663Z,78.90
2017-11-24T18:39:08.485Z,78.90
2017-11-24T18:41:38.592Z,78.40
2017-11-24T18:44:09.238Z,78.60
2017-11-24T18:46:40.100Z,78.30
2017-11-24T18:49:10.645Z,78.70
2017-11-24T18:51:40.385Z,78.70
2017-11-24T18:54:10.258Z,78.30
2017-11-24T18:56:40.903Z,78.30
2017-11-24T18:59:10.909Z,78.30
2017-11-24T19:01:42.216Z,78.10
2017-11-24T19:04:12.826Z,77.70
2017-11-24T19:06:42.496Z,77.70
2017-11-24T19:09:12.065Z,77.80
2017-11-24T19:11:43.530Z,78.50
2017-11-24T19:14:14.689Z,78.10
2017-11-24T19:16:44.401Z,78.00
2017-11-24T19:19:13.821Z,78.00
2017-11-24T19:21:43.478Z,77.70
2017-11-24T19:24:14.190Z,77.70
2017-11-24T19:26:43.987Z,79.30
2017-11-24T19:29:13.870Z,78.50
2017-11-24T19:31:44.532Z,78.50
2017-11-24T19:34:15.263Z,78.40
2017-11-24T19:36:46.000Z,78.20
2017-11-24T19:39:15.779Z,77.90
2017-11-24T19:41:47.115Z,77.90
2017-11-24T19:44:17.764Z,78.40
2017-11-24T19:46:48.024Z,77.80
2017-11-24T19:49:18.091Z,77.80
2017-11-24T19:51:48.686Z,77.80
2017-11-24T19:54:18.471Z,77.70
2017-11-24T19:56:48.378Z,78.00
2017-11-24T19:59:19.357Z,78.00
2017-11-24T20:01:48.496Z,78.00
2017-11-24T20:04:19.885Z,78.10
2017-11-24T20:06:57.107Z,78.10
2017-11-24T20:09:27.390Z,78.30
2017-11-24T20:11:57.072Z,78.30
2017-11-24T20:14:26.171Z,78.50
2017-11-24T20:16:56.383Z,78.50
2017-11-24T20:19:25.611Z,78.50
2017-11-24T20:21:54.902Z,78.50
2017-11-24T20:24:23.187Z,78.60
2017-11-24T20:26:52.326Z,79.30
2017-11-24T20:29:19.934Z,79.20
2017-11-24T20:31:47.549Z,79.40
2017-11-24T20:34:15.247Z,79.40
2017-11-24T20:36:43.659Z,79.70
2017-11-24T20:39:11.215Z,79.70
2017-11-24T20:41:38.788Z,79.30
2017-11-24T20:44:06.421Z,79.80
2017-11-24T20:46:34.018Z,80.00
2017-11-24T20:49:02.369Z,81.40
2017-11-24T20:51:29.979Z,80.80
2017-11-24T20:53:57.539Z,80.20
2017-11-24T20:56:25.182Z,80.50
2017-11-24T20:58:53.531Z,81.00
2017-11-24T21:01:23.428Z,81.00
2017-11-24T21:03:51.917Z,81.00
2017-11-24T21:06:20.436Z,80.40
2017-11-24T21:08:48.018Z,80.40
2017-11-24T21:11:15.650Z,81.00
2017-11-24T21:13:43.264Z,81.10
2017-11-24T21:16:10.860Z,81.20
2017-11-24T21:18:38.470Z,81.00
2017-11-24T21:21:06.051Z,80.70
2017-11-24T21:23:33.664Z,80.60
2017-11-24T21:26:01.282Z,80.40
2017-11-24T21:28:28.945Z,79.90
2017-11-24T21:30:57.300Z,80.10
2017-11-24T21:33:24.915Z,79.90
2017-11-24T21:35:52.489Z,79.60
2017-11-24T21:38:20.058Z,79.20
2017-11-24T21:40:47.654Z,79.50
2017-11-24T21:43:15.235Z,79.60
2017-11-24T21:45:43.629Z,78.80
2017-11-24T21:48:11.979Z,78.90
2017-11-24T21:50:39.603Z,78.80
2017-11-24T21:53:07.200Z,79.10
2017-11-24T21:55:34.784Z,80.20
2017-11-24T21:58:03.166Z,79.50
2017-11-24T22:00:31.511Z,79.30
2017-11-24T22:02:59.134Z,79.20
2017-11-24T22:05:26.712Z,79.00
2017-11-24T22:07:54.347Z,79.80
2017-11-24T22:10:21.953Z,79.50
2017-11-24T22:12:49.571Z,79.20
2017-11-24T22:15:17.185Z,79.20
2017-11-24T22:17:44.779Z,80.00
2017-11-24T22:20:13.145Z,80.50
2017-11-24T22:22:41.606Z,79.80
2017-11-24T22:25:09.169Z,79.80
2017-11-24T22:27:36.800Z,79.90
2017-11-24T22:30:04.463Z,79.70
2017-11-24T22:32:32.067Z,79.50
2017-11-24T22:34:59.673Z,79.30
2017-11-24T22:37:27.279Z,79.20
2017-11-24T22:39:54.908Z,79.30
2017-11-24T22:42:22.477Z,79.10
2017-11-24T22:44:50.064Z,79.20
2017-11-24T22:47:17.680Z,79.10
2017-11-24T22:49:45.255Z,79.10
2017-11-24T22:52:12.827Z,79.50
2017-11-24T22:54:40.443Z,79.60
2017-11-24T22:57:08.010Z,79.70
2017-11-24T22:59:35.739Z,80.20
2017-11-24T23:02:03.319Z,79.90
2017-11-24T23:04:31.690Z,80.50
2017-11-24T23:07:00.023Z,80.10
2017-11-24T23:09:27.632Z,80.00
2017-11-24T23:11:55.963Z,80.60
2017-11-24T23:14:23.575Z,80.00
2017-11-24T23:16:51.161Z,80.10
2017-11-24T23:19:18.769Z,79.90
2017-11-24T23:21:46.387Z,80.00
2017-11-24T23:24:13.944Z,80.20
2017-11-24T23:26:41.553Z,80.60
2017-11-24T23:29:09.131Z,79.90
2017-11-24T23:31:37.474Z,79.40
2017-11-24T23:34:05.090Z,79.30
2017-11-24T23:36:32.659Z,79.30
2017-11-24T23:39:01.019Z,79.20
2017-11-24T23:41:28.615Z,79.20
2017-11-24T23:43:56.170Z,79.20
2017-11-24T23:46:23.777Z,78.90
2017-11-24T23:48:51.399Z,78.90
2017-11-24T23:51:18.954Z,79.10
2017-11-24T23:53:46.558Z,79.10
2017-11-24T23:56:14.115Z,78.90
2017-11-24T23:58:41.712Z,78.80
